Kununurra Airport
YPKU : now visible

Airfield :











YOU CAN JOIN US ON...

 
LOGIN :

Register | Disclaimer

   EN    FR    IT 

 









Legend :    VFR   Marginal VFR   IFR   Intensive IFR   Very Intensive IFR
Visi :
Ceiling :
>= 8 km
>= 3000ft
5 to 8 km
1000 to 3000 ft
1500m to 5 km
500 to 1000 ft
800 to 1500m
200 to 500 ft
< 800m
< 200 ft
Symbols :   Thunderstorms  Fog  Heavy snow  Heavy precipitations  Wind > 20 kt






- Airport Elevation : 145 ft
- IATA code : KNX


YPKU - Kununurra

CURRENT METAR :
  • 110500Z AUTO 18006KT 150V230 9999 // SCT090 SCT110 40/16 Q1005

EXPIRED METARs :
  • 110430Z AUTO 23011KT 9999 // SCT090 41/17 Q1006 RF00.0/000.0
  • 110400Z AUTO 17005KT 130V190 9999 // SCT081 40/19 Q1006
  • 110330Z AUTO 35005KT 310V030 9999 // NCD 39/19 Q1007 RF00.0/000.0
  • 110300Z AUTO 21006KT 180V240 9999 // NCD 38/20 Q1008
  • 110230Z AUTO 08005KT 9999 // NCD 38/19 Q1008 RF00.0/000.0

TAF TAF YPKU
Valid from the 11 at 02:00 until the 11 at 14:00 UTC


110013Z 1102/1114 03010KT CAVOK
TEMPO 1104/1114 VRB25G45KT 2000 TSRA SCT030 SCT100CB



MET'MAP, your aeronautical weather chart ! - Copyright ORBIFLY December 2007 - Disclaimer

ORBIFLY MET'MAP TEAM :

Programming & Development : Alexandra Zaïnal
Concept & original design : Baudouin d'Aumeries
Assistance for programming : Marc-Olivier Méhu
Technical & hardware support : Manuel Goepfert

Contact : metmap@orbifly.com




SOURCES & CREDITS :

   NOAA       Earth
Advisory